sensor_id;sensor_type;location;lat;lon;timestamp;temperature;humidity
4677;DHT22;2352;48.180;11.478;2023-04-07T00:01:31;9.80;58.90
4677;DHT22;2352;48.180;11.478;2023-04-07T00:04:34;9.80;59.20
4677;DHT22;2352;48.180;11.478;2023-04-07T00:07:38;9.90;59.70
4677;DHT22;2352;48.180;11.478;2023-04-07T00:10:56;9.90;60.70
4677;DHT22;2352;48.180;11.478;2023-04-07T00:14:00;9.90;59.70
4677;DHT22;2352;48.180;11.478;2023-04-07T00:17:03;9.90;59.50
4677;DHT22;2352;48.180;11.478;2023-04-07T00:20:06;9.90;59.60
4677;DHT22;2352;48.180;11.478;2023-04-07T00:23:11;9.80;59.70
4677;DHT22;2352;48.180;11.478;2023-04-07T00:26:14;9.80;60.20
4677;DHT22;2352;48.180;11.478;2023-04-07T00:29:17;9.60;60.10
4677;DHT22;2352;48.180;11.478;2023-04-07T00:32:20;9.60;60.70
4677;DHT22;2352;48.180;11.478;2023-04-07T00:35:23;9.60;60.80
4677;DHT22;2352;48.180;11.478;2023-04-07T00:38:27;9.60;60.90
4677;DHT22;2352;48.180;11.478;2023-04-07T00:41:33;9.50;61.30
4677;DHT22;2352;48.180;11.478;2023-04-07T00:44:36;9.30;61.40
4677;DHT22;2352;48.180;11.478;2023-04-07T00:47:39;9.10;62.30
4677;DHT22;2352;48.180;11.478;2023-04-07T00:50:42;9.10;62.50
4677;DHT22;2352;48.180;11.478;2023-04-07T00:53:47;9.10;62.20
4677;DHT22;2352;48.180;11.478;2023-04-07T00:56:51;9.00;62.50
4677;DHT22;2352;48.180;11.478;2023-04-07T00:59:55;9.10;62.50
4677;DHT22;2352;48.180;11.478;2023-04-07T01:03:03;9.00;62.40
4677;DHT22;2352;48.180;11.478;2023-04-07T01:06:07;9.10;62.70
4677;DHT22;2352;48.180;11.478;2023-04-07T01:09:18;9.00;62.50
4677;DHT22;2352;48.180;11.478;2023-04-07T01:12:27;9.00;63.10
4677;DHT22;2352;48.180;11.478;2023-04-07T01:15:33;9.00;63.00
4677;DHT22;2352;48.180;11.478;2023-04-07T01:18:37;9.10;63.10
4677;DHT22;2352;48.180;11.478;2023-04-07T01:21:43;9.20;63.20
4677;DHT22;2352;48.180;11.478;2023-04-07T01:25:20;9.20;62.80
4677;DHT22;2352;48.180;11.478;2023-04-07T01:28:40;9.30;62.80
4677;DHT22;2352;48.180;11.478;2023-04-07T01:31:46;9.40;62.60
4677;DHT22;2352;48.180;11.478;2023-04-07T01:34:51;9.30;62.40
4677;DHT22;2352;48.180;11.478;2023-04-07T01:37:56;9.20;62.90
4677;DHT22;2352;48.180;11.478;2023-04-07T01:41:01;8.90;63.70
4677;DHT22;2352;48.180;11.478;2023-04-07T01:44:05;8.80;64.90
4677;DHT22;2352;48.180;11.478;2023-04-07T01:47:11;8.70;65.40
4677;DHT22;2352;48.180;11.478;2023-04-07T01:50:14;8.80;66.10
4677;DHT22;2352;48.180;11.478;2023-04-07T01:53:18;8.90;66.50
4677;DHT22;2352;48.180;11.478;2023-04-07T01:56:21;9.00;66.30
4677;DHT22;2352;48.180;11.478;2023-04-07T01:59:24;9.00;66.30
4677;DHT22;2352;48.180;11.478;2023-04-07T02:02:29;9.10;66.00
4677;DHT22;2352;48.180;11.478;2023-04-07T02:05:33;9.20;66.10
4677;DHT22;2352;48.180;11.478;2023-04-07T02:08:42;9.10;66.40
4677;DHT22;2352;48.180;11.478;2023-04-07T02:11:48;9.10;66.90
4677;DHT22;2352;48.180;11.478;2023-04-07T02:14:53;9.00;67.40
4677;DHT22;2352;48.180;11.478;2023-04-07T02:17:59;8.90;68.40
4677;DHT22;2352;48.180;11.478;2023-04-07T02:21:03;8.90;68.10
4677;DHT22;2352;48.180;11.478;2023-04-07T02:24:07;9.10;68.80
4677;DHT22;2352;48.180;11.478;2023-04-07T02:27:12;9.10;68.80
4677;DHT22;2352;48.180;11.478;2023-04-07T02:30:16;9.20;68.20
4677;DHT22;2352;48.180;11.478;2023-04-07T02:33:20;9.30;68.20
4677;DHT22;2352;48.180;11.478;2023-04-07T02:36:23;9.40;67.90
4677;DHT22;2352;48.180;11.478;2023-04-07T02:39:27;9.40;68.00
4677;DHT22;2352;48.180;11.478;2023-04-07T02:42:29;9.40;68.50
4677;DHT22;2352;48.180;11.478;2023-04-07T02:45:32;9.30;70.30
4677;DHT22;2352;48.180;11.478;2023-04-07T02:48:37;9.20;71.40
4677;DHT22;2352;48.180;11.478;2023-04-07T02:51:40;9.30;72.60
4677;DHT22;2352;48.180;11.478;2023-04-07T02:54:42;9.10;74.10
4677;DHT22;2352;48.180;11.478;2023-04-07T02:57:45;9.00;76.20
4677;DHT22;2352;48.180;11.478;2023-04-07T03:00:48;9.00;76.40
4677;DHT22;2352;48.180;11.478;2023-04-07T03:03:53;9.00;76.50
4677;DHT22;2352;48.180;11.478;2023-04-07T03:06:56;9.00;78.20
4677;DHT22;2352;48.180;11.478;2023-04-07T03:09:59;9.10;78.10
4677;DHT22;2352;48.180;11.478;2023-04-07T03:13:02;8.90;79.30
4677;DHT22;2352;48.180;11.478;2023-04-07T03:16:05;8.90;80.10
4677;DHT22;2352;48.180;11.478;2023-04-07T03:19:09;8.90;80.50
4677;DHT22;2352;48.180;11.478;2023-04-07T03:22:12;8.90;81.70
4677;DHT22;2352;48.180;11.478;2023-04-07T03:25:15;8.90;82.50
4677;DHT22;2352;48.180;11.478;2023-04-07T03:28:18;8.80;82.70
4677;DHT22;2352;48.180;11.478;2023-04-07T03:31:22;8.90;83.90
4677;DHT22;2352;48.180;11.478;2023-04-07T03:34:26;9.00;83.60
4677;DHT22;2352;48.180;11.478;2023-04-07T03:37:29;9.10;83.60
4677;DHT22;2352;48.180;11.478;2023-04-07T03:40:32;9.20;82.90
4677;DHT22;2352;48.180;11.478;2023-04-07T03:43:36;9.20;84.30
4677;DHT22;2352;48.180;11.478;2023-04-07T03:46:39;9.10;83.80
4677;DHT22;2352;48.180;11.478;2023-04-07T03:49:43;9.20;84.00
4677;DHT22;2352;48.180;11.478;2023-04-07T03:52:46;9.40;84.40
4677;DHT22;2352;48.180;11.478;2023-04-07T03:55:49;9.30;83.70
4677;DHT22;2352;48.180;11.478;2023-04-07T03:58:52;9.40;85.00
4677;DHT22;2352;48.180;11.478;2023-04-07T04:01:55;9.50;85.70
4677;DHT22;2352;48.180;11.478;2023-04-07T04:05:00;9.60;85.50
4677;DHT22;2352;48.180;11.478;2023-04-07T04:08:03;9.60;86.50
4677;DHT22;2352;48.180;11.478;2023-04-07T04:11:05;9.60;87.50
4677;DHT22;2352;48.180;11.478;2023-04-07T04:14:08;9.60;87.10
4677;DHT22;2352;48.180;11.478;2023-04-07T04:17:11;9.60;87.20
4677;DHT22;2352;48.180;11.478;2023-04-07T04:20:15;9.60;87.20
4677;DHT22;2352;48.180;11.478;2023-04-07T04:23:18;9.70;88.10
4677;DHT22;2352;48.180;11.478;2023-04-07T04:26:21;9.50;87.50
4677;DHT22;2352;48.180;11.478;2023-04-07T04:29:26;9.50;87.40
4677;DHT22;2352;48.180;11.478;2023-04-07T04:32:32;9.60;87.50
4677;DHT22;2352;48.180;11.478;2023-04-07T04:35:36;9.60;88.30
4677;DHT22;2352;48.180;11.478;2023-04-07T04:38:40;9.60;88.30
4677;DHT22;2352;48.180;11.478;2023-04-07T04:41:43;9.60;88.70
4677;DHT22;2352;48.180;11.478;2023-04-07T04:44:46;9.50;87.40
4677;DHT22;2352;48.180;11.478;2023-04-07T04:47:49;9.40;88.20
4677;DHT22;2352;48.180;11.478;2023-04-07T04:50:53;9.40;88.10
4677;DHT22;2352;48.180;11.478;2023-04-07T04:53:56;9.50;88.80
4677;DHT22;2352;48.180;11.478;2023-04-07T04:56:59;9.50;89.80
4677;DHT22;2352;48.180;11.478;2023-04-07T05:00:03;9.50;89.20
4677;DHT22;2352;48.180;11.478;2023-04-07T05:03:06;9.60;88.60
4677;DHT22;2352;48.180;11.478;2023-04-07T05:06:10;9.50;88.80
4677;DHT22;2352;48.180;11.478;2023-04-07T05:09:13;9.50;89.30
4677;DHT22;2352;48.180;11.478;2023-04-07T05:12:16;9.40;89.70
4677;DHT22;2352;48.180;11.478;2023-04-07T05:15:19;9.40;90.00
4677;DHT22;2352;48.180;11.478;2023-04-07T05:18:22;9.40;89.70
4677;DHT22;2352;48.180;11.478;2023-04-07T05:21:26;9.40;89.60
4677;DHT22;2352;48.180;11.478;2023-04-07T05:24:29;9.50;90.30
4677;DHT22;2352;48.180;11.478;2023-04-07T05:27:32;9.40;89.50
4677;DHT22;2352;48.180;11.478;2023-04-07T05:30:35;9.30;89.30
4677;DHT22;2352;48.180;11.478;2023-04-07T05:33:38;9.30;90.00
4677;DHT22;2352;48.180;11.478;2023-04-07T05:36:42;9.30;90.20
4677;DHT22;2352;48.180;11.478;2023-04-07T05:39:45;9.40;90.10
4677;DHT22;2352;48.180;11.478;2023-04-07T05:42:47;9.40;90.20
4677;DHT22;2352;48.180;11.478;2023-04-07T05:45:50;9.40;90.00
4677;DHT22;2352;48.180;11.478;2023-04-07T05:48:53;9.40;89.60
4677;DHT22;2352;48.180;11.478;2023-04-07T05:51:57;9.40;90.40
4677;DHT22;2352;48.180;11.478;2023-04-07T05:55:00;9.50;90.50
4677;DHT22;2352;48.180;11.478;2023-04-07T05:58:03;9.50;89.70
4677;DHT22;2352;48.180;11.478;2023-04-07T06:01:06;9.40;90.10
4677;DHT22;2352;48.180;11.478;2023-04-07T06:04:09;9.50;89.50
4677;DHT22;2352;48.180;11.478;2023-04-07T06:07:13;9.50;88.90
4677;DHT22;2352;48.180;11.478;2023-04-07T06:10:16;9.40;90.20
4677;DHT22;2352;48.180;11.478;2023-04-07T06:13:19;9.30;90.30
4677;DHT22;2352;48.180;11.478;2023-04-07T06:16:22;9.40;90.30
4677;DHT22;2352;48.180;11.478;2023-04-07T06:19:25;9.40;90.40
4677;DHT22;2352;48.180;11.478;2023-04-07T06:22:30;9.40;90.20
4677;DHT22;2352;48.180;11.478;2023-04-07T06:25:33;9.40;90.50
4677;DHT22;2352;48.180;11.478;2023-04-07T06:28:35;9.50;90.80
4677;DHT22;2352;48.180;11.478;2023-04-07T06:31:38;9.30;90.00
4677;DHT22;2352;48.180;11.478;2023-04-07T06:34:42;9.40;90.70
4677;DHT22;2352;48.180;11.478;2023-04-07T06:37:46;9.40;90.30
4677;DHT22;2352;48.180;11.478;2023-04-07T06:40:50;9.50;90.00
4677;DHT22;2352;48.180;11.478;2023-04-07T06:43:53;9.50;90.10
4677;DHT22;2352;48.180;11.478;2023-04-07T06:46:56;9.60;89.70
4677;DHT22;2352;48.180;11.478;2023-04-07T06:49:59;9.60;90.00
4677;DHT22;2352;48.180;11.478;2023-04-07T06:53:03;9.60;90.30
4677;DHT22;2352;48.180;11.478;2023-04-07T06:56:07;9.60;90.00
4677;DHT22;2352;48.180;11.478;2023-04-07T06:59:10;9.70;89.10
4677;DHT22;2352;48.180;11.478;2023-04-07T07:02:13;9.60;89.70
4677;DHT22;2352;48.180;11.478;2023-04-07T07:05:16;9.70;90.00
4677;DHT22;2352;48.180;11.478;2023-04-07T07:08:21;9.70;89.60
4677;DHT22;2352;48.180;11.478;2023-04-07T07:11:24;9.70;89.90
4677;DHT22;2352;48.180;11.478;2023-04-07T07:14:27;9.80;89.50
4677;DHT22;2352;48.180;11.478;2023-04-07T07:17:30;9.80;90.00
4677;DHT22;2352;48.180;11.478;2023-04-07T07:20:33;9.90;89.10
4677;DHT22;2352;48.180;11.478;2023-04-07T07:23:37;9.90;89.00
4677;DHT22;2352;48.180;11.478;2023-04-07T07:26:40;9.90;89.20
4677;DHT22;2352;48.180;11.478;2023-04-07T07:29:45;10.00;89.00
4677;DHT22;2352;48.180;11.478;2023-04-07T07:32:48;10.00;88.10
4677;DHT22;2352;48.180;11.478;2023-04-07T07:35:51;10.10;86.90
4677;DHT22;2352;48.180;11.478;2023-04-07T07:38:56;10.10;88.10
4677;DHT22;2352;48.180;11.478;2023-04-07T07:41:59;10.10;88.50
4677;DHT22;2352;48.180;11.478;2023-04-07T07:45:02;10.10;86.80
4677;DHT22;2352;48.180;11.478;2023-04-07T07:48:05;10.10;87.30
4677;DHT22;2352;48.180;11.478;2023-04-07T07:51:08;10.20;87.80
4677;DHT22;2352;48.180;11.478;2023-04-07T07:54:12;10.20;87.60
4677;DHT22;2352;48.180;11.478;2023-04-07T07:57:16;10.20;86.60
4677;DHT22;2352;48.180;11.478;2023-04-07T08:00:19;10.20;86.90
4677;DHT22;2352;48.180;11.478;2023-04-07T08:03:22;10.20;86.50
4677;DHT22;2352;48.180;11.478;2023-04-07T08:06:25;10.20;85.80
4677;DHT22;2352;48.180;11.478;2023-04-07T08:09:31;10.30;86.10
4677;DHT22;2352;48.180;11.478;2023-04-07T08:12:34;10.40;86.40
4677;DHT22;2352;48.180;11.478;2023-04-07T08:15:38;10.40;86.10
4677;DHT22;2352;48.180;11.478;2023-04-07T08:18:41;10.40;85.80
4677;DHT22;2352;48.180;11.478;2023-04-07T08:21:44;10.40;85.60
4677;DHT22;2352;48.180;11.478;2023-04-07T08:24:48;10.40;85.30
4677;DHT22;2352;48.180;11.478;2023-04-07T08:27:51;10.50;86.00
4677;DHT22;2352;48.180;11.478;2023-04-07T08:30:54;10.50;86.10
4677;DHT22;2352;48.180;11.478;2023-04-07T08:33:57;10.70;84.90
4677;DHT22;2352;48.180;11.478;2023-04-07T08:37:00;10.70;84.90
4677;DHT22;2352;48.180;11.478;2023-04-07T08:40:05;10.70;84.20
4677;DHT22;2352;48.180;11.478;2023-04-07T08:43:09;10.80;84.20
4677;DHT22;2352;48.180;11.478;2023-04-07T08:46:12;11.00;84.20
4677;DHT22;2352;48.180;11.478;2023-04-07T08:49:16;11.10;83.30
4677;DHT22;2352;48.180;11.478;2023-04-07T08:52:22;11.10;84.50
4677;DHT22;2352;48.180;11.478;2023-04-07T08:55:32;11.20;84.20
4677;DHT22;2352;48.180;11.478;2023-04-07T08:58:37;11.30;83.90
4677;DHT22;2352;48.180;11.478;2023-04-07T09:01:40;11.30;82.00
4677;DHT22;2352;48.180;11.478;2023-04-07T09:04:44;11.30;81.90
4677;DHT22;2352;48.180;11.478;2023-04-07T09:07:47;11.40;82.90
4677;DHT22;2352;48.180;11.478;2023-04-07T09:10:52;11.60;81.20
4677;DHT22;2352;48.180;11.478;2023-04-07T09:13:55;11.60;82.00
4677;DHT22;2352;48.180;11.478;2023-04-07T09:16:59;11.60;81.50
4677;DHT22;2352;48.180;11.478;2023-04-07T09:20:03;11.70;81.40
4677;DHT22;2352;48.180;11.478;2023-04-07T09:23:06;11.70;79.00
4677;DHT22;2352;48.180;11.478;2023-04-07T09:26:21;11.80;78.90
4677;DHT22;2352;48.180;11.478;2023-04-07T09:29:25;12.00;80.20
4677;DHT22;2352;48.180;11.478;2023-04-07T09:32:34;12.20;77.10
4677;DHT22;2352;48.180;11.478;2023-04-07T09:35:50;12.20;76.10
4677;DHT22;2352;48.180;11.478;2023-04-07T09:38:54;12.30;76.80
4677;DHT22;2352;48.180;11.478;2023-04-07T09:41:58;12.50;77.50
4677;DHT22;2352;48.180;11.478;2023-04-07T09:45:11;12.60;78.00
4677;DHT22;2352;48.180;11.478;2023-04-07T09:48:31;12.80;78.30
4677;DHT22;2352;48.180;11.478;2023-04-07T09:51:35;13.00;76.00
4677;DHT22;2352;48.180;11.478;2023-04-07T09:54:40;13.20;77.10
4677;DHT22;2352;48.180;11.478;2023-04-07T09:57:43;13.40;79.80
4677;DHT22;2352;48.180;11.478;2023-04-07T10:00:48;13.70;82.90
4677;DHT22;2352;48.180;11.478;2023-04-07T10:03:51;13.80;80.90
4677;DHT22;2352;48.180;11.478;2023-04-07T10:06:57;13.90;76.10
4677;DHT22;2352;48.180;11.478;2023-04-07T10:10:01;13.90;72.60
4677;DHT22;2352;48.180;11.478;2023-04-07T10:13:05;13.60;70.10
4677;DHT22;2352;48.180;11.478;2023-04-07T10:16:09;13.60;73.00
4677;DHT22;2352;48.180;11.478;2023-04-07T10:19:13;13.60;70.80
4677;DHT22;2352;48.180;11.478;2023-04-07T10:22:16;13.60;72.60
4677;DHT22;2352;48.180;11.478;2023-04-07T10:25:21;13.50;71.90
4677;DHT22;2352;48.180;11.478;2023-04-07T10:28:27;13.50;72.10
4677;DHT22;2352;48.180;11.478;2023-04-07T10:31:35;13.60;73.10
4677;DHT22;2352;48.180;11.478;2023-04-07T10:35:00;13.80;70.80
4677;DHT22;2352;48.180;11.478;2023-04-07T10:38:11;13.90;69.20
4677;DHT22;2352;48.180;11.478;2023-04-07T10:41:31;14.00;71.30
4677;DHT22;2352;48.180;11.478;2023-04-07T10:44:45;14.10;71.70
4677;DHT22;2352;48.180;11.478;2023-04-07T10:48:11;14.40;68.90
4677;DHT22;2352;48.180;11.478;2023-04-07T10:51:15;14.80;71.90
4677;DHT22;2352;48.180;11.478;2023-04-07T10:54:19;15.30;71.60
4677;DHT22;2352;48.180;11.478;2023-04-07T10:57:23;15.60;68.90
4677;DHT22;2352;48.180;11.478;2023-04-07T11:00:26;15.90;64.80
4677;DHT22;2352;48.180;11.478;2023-04-07T11:03:31;15.80;62.20
4677;DHT22;2352;48.180;11.478;2023-04-07T11:06:45;15.50;64.70
4677;DHT22;2352;48.180;11.478;2023-04-07T11:09:48;15.60;64.80
4677;DHT22;2352;48.180;11.478;2023-04-07T11:13:02;15.80;66.10
4677;DHT22;2352;48.180;11.478;2023-04-07T11:16:05;15.70;62.80
4677;DHT22;2352;48.180;11.478;2023-04-07T11:19:10;15.60;63.20
4677;DHT22;2352;48.180;11.478;2023-04-07T11:22:14;15.50;63.20
4677;DHT22;2352;48.180;11.478;2023-04-07T11:25:31;15.60;63.20
4677;DHT22;2352;48.180;11.478;2023-04-07T11:28:35;15.60;63.50
4677;DHT22;2352;48.180;11.478;2023-04-07T11:31:46;15.50;64.60
4677;DHT22;2352;48.180;11.478;2023-04-07T11:34:51;15.60;63.70
4677;DHT22;2352;48.180;11.478;2023-04-07T11:37:57;15.50;63.30
4677;DHT22;2352;48.180;11.478;2023-04-07T11:41:09;15.40;63.50
4677;DHT22;2352;48.180;11.478;2023-04-07T11:44:13;15.40;64.60
4677;DHT22;2352;48.180;11.478;2023-04-07T11:47:16;15.40;62.40
4677;DHT22;2352;48.180;11.478;2023-04-07T11:50:38;15.10;63.70
4677;DHT22;2352;48.180;11.478;2023-04-07T11:53:42;15.20;63.40
4677;DHT22;2352;48.180;11.478;2023-04-07T11:56:46;15.50;63.20
4677;DHT22;2352;48.180;11.478;2023-04-07T11:59:50;15.80;61.50
4677;DHT22;2352;48.180;11.478;2023-04-07T12:03:10;16.10;64.20
4677;DHT22;2352;48.180;11.478;2023-04-07T12:06:27;16.40;62.30
4677;DHT22;2352;48.180;11.478;2023-04-07T12:09:32;16.70;61.20
4677;DHT22;2352;48.180;11.478;2023-04-07T12:12:36;16.80;59.30
4677;DHT22;2352;48.180;11.478;2023-04-07T12:15:40;16.80;60.40
4677;DHT22;2352;48.180;11.478;2023-04-07T12:18:43;16.60;58.70
4677;DHT22;2352;48.180;11.478;2023-04-07T12:21:47;16.50;58.30
4677;DHT22;2352;48.180;11.478;2023-04-07T12:24:50;16.40;61.60
4677;DHT22;2352;48.180;11.478;2023-04-07T12:27:53;16.30;61.00
4677;DHT22;2352;48.180;11.478;2023-04-07T12:30:56;16.40;59.00
4677;DHT22;2352;48.180;11.478;2023-04-07T12:33:59;16.40;59.70
4677;DHT22;2352;48.180;11.478;2023-04-07T12:37:03;16.00;58.60
4677;DHT22;2352;48.180;11.478;2023-04-07T12:40:07;15.80;59.20
4677;DHT22;2352;48.180;11.478;2023-04-07T12:43:10;15.80;60.20
4677;DHT22;2352;48.180;11.478;2023-04-07T12:46:13;15.80;61.00
4677;DHT22;2352;48.180;11.478;2023-04-07T12:49:16;15.70;60.80
4677;DHT22;2352;48.180;11.478;2023-04-07T12:52:20;15.30;61.00
4677;DHT22;2352;48.180;11.478;2023-04-07T12:55:23;15.20;60.80
4677;DHT22;2352;48.180;11.478;2023-04-07T12:58:26;15.10;61.50
4677;DHT22;2352;48.180;11.478;2023-04-07T13:01:29;15.30;64.00
4677;DHT22;2352;48.180;11.478;2023-04-07T13:04:32;15.30;63.10
4677;DHT22;2352;48.180;11.478;2023-04-07T13:07:37;15.10;63.00
4677;DHT22;2352;48.180;11.478;2023-04-07T13:10:40;15.10;64.80
4677;DHT22;2352;48.180;11.478;2023-04-07T13:13:43;15.30;64.80
4677;DHT22;2352;48.180;11.478;2023-04-07T13:16:47;15.30;63.00
4677;DHT22;2352;48.180;11.478;2023-04-07T13:19:50;15.40;61.10
4677;DHT22;2352;48.180;11.478;2023-04-07T13:22:54;15.40;62.80
4677;DHT22;2352;48.180;11.478;2023-04-07T13:26:01;15.40;63.30
4677;DHT22;2352;48.180;11.478;2023-04-07T13:29:04;15.40;65.20
4677;DHT22;2352;48.180;11.478;2023-04-07T13:32:07;15.40;62.20
4677;DHT22;2352;48.180;11.478;2023-04-07T13:35:11;15.20;61.80
4677;DHT22;2352;48.180;11.478;2023-04-07T13:38:15;15.10;63.00
4677;DHT22;2352;48.180;11.478;2023-04-07T13:41:18;15.20;63.00
4677;DHT22;2352;48.180;11.478;2023-04-07T13:44:22;15.30;64.30
4677;DHT22;2352;48.180;11.478;2023-04-07T13:47:25;15.10;62.90
4677;DHT22;2352;48.180;11.478;2023-04-07T13:50:30;15.20;63.20
4677;DHT22;2352;48.180;11.478;2023-04-07T13:53:34;15.10;62.30
4677;DHT22;2352;48.180;11.478;2023-04-07T13:56:37;15.00;62.00
4677;DHT22;2352;48.180;11.478;2023-04-07T13:59:40;15.10;62.40
4677;DHT22;2352;48.180;11.478;2023-04-07T14:02:43;15.10;62.50
4677;DHT22;2352;48.180;11.478;2023-04-07T14:05:48;15.00;63.50
4677;DHT22;2352;48.180;11.478;2023-04-07T14:08:52;14.90;62.60
4677;DHT22;2352;48.180;11.478;2023-04-07T14:11:55;15.00;63.30
4677;DHT22;2352;48.180;11.478;2023-04-07T14:14:58;14.80;61.80
4677;DHT22;2352;48.180;11.478;2023-04-07T14:18:01;14.80;61.80
4677;DHT22;2352;48.180;11.478;2023-04-07T14:21:04;14.80;62.00
4677;DHT22;2352;48.180;11.478;2023-04-07T14:24:09;14.90;63.30
4677;DHT22;2352;48.180;11.478;2023-04-07T14:27:12;15.00;64.20
4677;DHT22;2352;48.180;11.478;2023-04-07T14:30:17;15.00;63.60
4677;DHT22;2352;48.180;11.478;2023-04-07T14:33:20;15.00;64.10
4677;DHT22;2352;48.180;11.478;2023-04-07T14:36:23;14.90;63.30
4677;DHT22;2352;48.180;11.478;2023-04-07T14:39:27;14.90;63.90
4677;DHT22;2352;48.180;11.478;2023-04-07T14:42:31;14.90;64.30
4677;DHT22;2352;48.180;11.478;2023-04-07T14:45:34;15.00;64.00
4677;DHT22;2352;48.180;11.478;2023-04-07T14:48:37;15.00;63.10
4677;DHT22;2352;48.180;11.478;2023-04-07T14:51:40;14.90;63.30
4677;DHT22;2352;48.180;11.478;2023-04-07T14:54:44;14.90;63.40
4677;DHT22;2352;48.180;11.478;2023-04-07T14:57:47;14.90;65.90
4677;DHT22;2352;48.180;11.478;2023-04-07T15:00:50;15.00;63.80
4677;DHT22;2352;48.180;11.478;2023-04-07T15:03:53;15.00;64.60
4677;DHT22;2352;48.180;11.478;2023-04-07T15:06:56;15.00;64.30
4677;DHT22;2352;48.180;11.478;2023-04-07T15:10:00;15.00;66.30
4677;DHT22;2352;48.180;11.478;2023-04-07T15:13:02;15.00;64.90
4677;DHT22;2352;48.180;11.478;2023-04-07T15:16:07;15.00;65.20
4677;DHT22;2352;48.180;11.478;2023-04-07T15:19:11;14.90;66.10
4677;DHT22;2352;48.180;11.478;2023-04-07T15:22:13;14.80;65.10
4677;DHT22;2352;48.180;11.478;2023-04-07T15:25:18;14.80;65.20
4677;DHT22;2352;48.180;11.478;2023-04-07T15:28:23;14.80;65.10
4677;DHT22;2352;48.180;11.478;2023-04-07T15:31:26;14.90;65.70
4677;DHT22;2352;48.180;11.478;2023-04-07T15:34:30;14.90;67.00
4677;DHT22;2352;48.180;11.478;2023-04-07T15:37:33;14.90;66.80
4677;DHT22;2352;48.180;11.478;2023-04-07T15:40:38;14.80;67.30
4677;DHT22;2352;48.180;11.478;2023-04-07T15:43:41;14.70;66.90
4677;DHT22;2352;48.180;11.478;2023-04-07T15:46:44;14.70;66.00
4677;DHT22;2352;48.180;11.478;2023-04-07T15:49:47;14.70;67.10
4677;DHT22;2352;48.180;11.478;2023-04-07T15:52:49;14.60;67.70
4677;DHT22;2352;48.180;11.478;2023-04-07T15:55:54;14.70;67.70
4677;DHT22;2352;48.180;11.478;2023-04-07T15:58:56;14.70;66.90
4677;DHT22;2352;48.180;11.478;2023-04-07T16:01:59;14.70;67.20
4677;DHT22;2352;48.180;11.478;2023-04-07T16:05:03;14.70;67.70
4677;DHT22;2352;48.180;11.478;2023-04-07T16:08:06;14.60;66.20
4677;DHT22;2352;48.180;11.478;2023-04-07T16:11:10;14.60;65.40
4677;DHT22;2352;48.180;11.478;2023-04-07T16:14:13;14.60;65.50
4677;DHT22;2352;48.180;11.478;2023-04-07T16:17:16;14.50;65.70
4677;DHT22;2352;48.180;11.478;2023-04-07T16:20:19;14.50;65.90
4677;DHT22;2352;48.180;11.478;2023-04-07T16:23:22;14.50;66.90
4677;DHT22;2352;48.180;11.478;2023-04-07T16:26:26;14.50;67.50
4677;DHT22;2352;48.180;11.478;2023-04-07T16:29:29;14.50;67.80
4677;DHT22;2352;48.180;11.478;2023-04-07T16:32:32;14.50;68.70
4677;DHT22;2352;48.180;11.478;2023-04-07T16:35:34;14.50;70.40
4677;DHT22;2352;48.180;11.478;2023-04-07T16:38:37;14.50;67.30
4677;DHT22;2352;48.180;11.478;2023-04-07T16:41:41;14.50;68.30
4677;DHT22;2352;48.180;11.478;2023-04-07T16:44:44;14.30;67.50
4677;DHT22;2352;48.180;11.478;2023-04-07T16:47:47;14.30;67.70
4677;DHT22;2352;48.180;11.478;2023-04-07T16:50:50;14.30;68.70
4677;DHT22;2352;48.180;11.478;2023-04-07T16:53:53;14.30;69.10
4677;DHT22;2352;48.180;11.478;2023-04-07T16:56:57;14.30;70.40
4677;DHT22;2352;48.180;11.478;2023-04-07T17:00:00;14.30;71.50
4677;DHT22;2352;48.180;11.478;2023-04-07T17:03:02;14.30;70.40
4677;DHT22;2352;48.180;11.478;2023-04-07T17:06:06;14.20;70.20
4677;DHT22;2352;48.180;11.478;2023-04-07T17:09:08;14.20;70.30
4677;DHT22;2352;48.180;11.478;2023-04-07T17:12:14;14.20;70.50
4677;DHT22;2352;48.180;11.478;2023-04-07T17:15:17;14.10;71.30
4677;DHT22;2352;48.180;11.478;2023-04-07T17:18:20;14.00;71.30
4677;DHT22;2352;48.180;11.478;2023-04-07T17:21:23;14.00;70.50
4677;DHT22;2352;48.180;11.478;2023-04-07T17:24:26;14.00;71.20
4677;DHT22;2352;48.180;11.478;2023-04-07T17:27:30;14.00;71.00
4677;DHT22;2352;48.180;11.478;2023-04-07T17:30:34;14.00;71.80
4677;DHT22;2352;48.180;11.478;2023-04-07T17:33:37;14.00;74.40
4677;DHT22;2352;48.180;11.478;2023-04-07T17:36:40;13.90;71.60
4677;DHT22;2352;48.180;11.478;2023-04-07T17:39:43;13.90;72.90
4677;DHT22;2352;48.180;11.478;2023-04-07T17:42:47;13.90;72.80
4677;DHT22;2352;48.180;11.478;2023-04-07T17:45:50;13.90;73.30
4677;DHT22;2352;48.180;11.478;2023-04-07T17:48:53;13.80;74.00
4677;DHT22;2352;48.180;11.478;2023-04-07T17:51:58;13.80;73.60
4677;DHT22;2352;48.180;11.478;2023-04-07T17:55:00;13.70;73.20
4677;DHT22;2352;48.180;11.478;2023-04-07T17:58:05;13.70;73.60
4677;DHT22;2352;48.180;11.478;2023-04-07T18:01:08;13.60;74.40
4677;DHT22;2352;48.180;11.478;2023-04-07T18:04:11;13.70;73.70
4677;DHT22;2352;48.180;11.478;2023-04-07T18:07:15;13.70;73.60
4677;DHT22;2352;48.180;11.478;2023-04-07T18:10:18;13.60;74.90
4677;DHT22;2352;48.180;11.478;2023-04-07T18:13:22;13.60;74.30
4677;DHT22;2352;48.180;11.478;2023-04-07T18:16:25;13.60;74.90
4677;DHT22;2352;48.180;11.478;2023-04-07T18:19:28;13.60;75.50
4677;DHT22;2352;48.180;11.478;2023-04-07T18:22:31;13.50;74.30
4677;DHT22;2352;48.180;11.478;2023-04-07T18:25:34;13.60;76.70
4677;DHT22;2352;48.180;11.478;2023-04-07T18:28:39;13.50;75.60
4677;DHT22;2352;48.180;11.478;2023-04-07T18:31:41;13.50;76.00
4677;DHT22;2352;48.180;11.478;2023-04-07T18:34:45;13.50;76.80
4677;DHT22;2352;48.180;11.478;2023-04-07T18:37:48;13.40;76.30
4677;DHT22;2352;48.180;11.478;2023-04-07T18:40:51;13.40;77.10
4677;DHT22;2352;48.180;11.478;2023-04-07T18:43:55;13.30;77.50
4677;DHT22;2352;48.180;11.478;2023-04-07T18:46:58;13.30;76.90
4677;DHT22;2352;48.180;11.478;2023-04-07T18:50:02;13.30;78.00
4677;DHT22;2352;48.180;11.478;2023-04-07T18:53:05;13.30;78.50
4677;DHT22;2352;48.180;11.478;2023-04-07T18:56:08;13.20;78.30
4677;DHT22;2352;48.180;11.478;2023-04-07T18:59:12;13.30;78.40
4677;DHT22;2352;48.180;11.478;2023-04-07T19:02:15;13.30;77.80
4677;DHT22;2352;48.180;11.478;2023-04-07T19:05:18;13.20;78.20
4677;DHT22;2352;48.180;11.478;2023-04-07T19:08:25;13.20;78.50
4677;DHT22;2352;48.180;11.478;2023-04-07T19:11:28;13.20;78.60
4677;DHT22;2352;48.180;11.478;2023-04-07T19:14:33;13.10;78.70
4677;DHT22;2352;48.180;11.478;2023-04-07T19:17:36;13.10;77.80
4677;DHT22;2352;48.180;11.478;2023-04-07T19:20:39;13.10;79.10
4677;DHT22;2352;48.180;11.478;2023-04-07T19:23:42;13.10;78.80
4677;DHT22;2352;48.180;11.478;2023-04-07T19:26:46;13.00;80.00
4677;DHT22;2352;48.180;11.478;2023-04-07T19:29:50;13.10;79.30
4677;DHT22;2352;48.180;11.478;2023-04-07T19:32:53;13.10;79.30
4677;DHT22;2352;48.180;11.478;2023-04-07T19:35:57;13.10;79.10
4677;DHT22;2352;48.180;11.478;2023-04-07T19:39:00;13.00;79.00
4677;DHT22;2352;48.180;11.478;2023-04-07T19:42:04;13.00;78.90
4677;DHT22;2352;48.180;11.478;2023-04-07T19:45:09;13.00;79.00
4677;DHT22;2352;48.180;11.478;2023-04-07T19:48:13;12.90;79.50
4677;DHT22;2352;48.180;11.478;2023-04-07T19:51:16;12.90;79.00